MMMT

Details ICAO MMMT (MTT)
Name MINATITLAN
Region Mexico
Timezone America/Mexico_City (UTC-5.0)
Plans Departing 13
Arriving 19
Stats Elevation 36 ft / 11 m (AMSL)
Location 18.103420° -94.580681°
Runways 1
Magnetic Variation 2.654° E
Sunrise 2018-05-24 11:44:18 UTC / 2018-05-24 06:44:18 Local
Sunset 2018-05-25 00:48:56 UTC / 2018-05-24 19:48:56 Local
Advertisement - Login to hide

Runways

ID Width Length Bearing (true) Bearing (mag) Surface Threshold Offset Overrun Length
01 148 ft / 45 m 6,931 ft / 2,113 m 17.70° 15.05° Asphalt 0 ft / 0 m 200 ft / 61 m
19 148 ft / 45 m 6,931 ft / 2,113 m 197.70° 195.05° Asphalt 0 ft / 0 m 180 ft / 55 m

Map

Weather


0- 5 10 15 20 25 30 35+ Temperature / ° C

Clouds and Precipitation
Forecast for 2018-05-24 12:00 UTC. Updated 2 hours ago

Ground ~20,000 ft ~40,000 ft Winds

METAR

MMMT 241145Z 24008KT 7SM SCT030 23/21 A2990 RMK SLP209 57003 910 8/100

TAF

Not found

Frequencies

Tower 118.10 MHz TWR
Warning: Do not use this data for real-world aviation or navigation. No guarantee of current accuracy is given.